Time;durP1;ratioP1;P1;durP2;ratioP2;P2;SDS_P1;SDS_P2;PMS_P1;PMS_P2;Temp;Humidity;BMP_temperature;BMP_pressure;BME280_temperature;BME280_humidity;BME280_pressure;Samples;Min_cycle;Max_cycle;Signal;HPM_P1;HPM_P2
2022/05/09 00:00:14;;;;;;;7.82;2.75;;;10.00;78.60;;;;;;4957206;28;20125;-76
2022/05/09 00:02:40;;;;;;;5.53;2.22;;;9.90;79.10;;;;;;4956927;28;20090;-76
2022/05/09 00:05:08;;;;;;;7.35;2.30;;;9.90;79.60;;;;;;4951734;28;20046;-76
2022/05/09 00:07:34;;;;;;;4.05;1.80;;;9.80;80.10;;;;;;4950198;28;20089;-76
2022/05/09 00:10:00;;;;;;;8.07;2.22;;;9.80;80.50;;;;;;4950400;28;20039;-76
2022/05/09 00:12:26;;;;;;;6.88;2.35;;;9.80;81.00;;;;;;4950390;28;20043;-76
2022/05/09 00:14:52;;;;;;;7.90;2.20;;;9.70;81.20;;;;;;4956984;28;20077;-76
2022/05/09 00:17:18;;;;;;;7.45;2.05;;;9.70;81.60;;;;;;4957540;28;20646;-76
2022/05/09 00:19:44;;;;;;;8.85;2.25;;;9.70;82.00;;;;;;4955405;28;20035;-76
2022/05/09 00:22:09;;;;;;;6.15;1.70;;;9.60;82.40;;;;;;4954737;28;20038;-76
2022/05/09 00:24:35;;;;;;;7.57;1.83;;;9.60;82.60;;;;;;4955810;28;20035;-76
2022/05/09 00:27:01;;;;;;;8.38;1.95;;;9.50;82.80;;;;;;4952668;28;20062;-76
2022/05/09 00:29:27;;;;;;;8.88;2.50;;;9.50;83.00;;;;;;4951435;28;20607;-76
2022/05/09 00:31:57;;;;;;;6.72;2.00;;;9.50;83.40;;;;;;4954075;28;20026;-76
2022/05/09 00:34:25;;;;;;;8.13;2.20;;;9.50;83.70;;;;;;4954503;28;20621;-76
2022/05/09 00:36:55;;;;;;;8.75;2.42;;;9.40;83.90;;;;;;4951936;28;20110;-76
2022/05/09 00:39:22;;;;;;;10.40;3.10;;;9.40;84.20;;;;;;4953368;28;20087;-76
2022/05/09 00:41:48;;;;;;;6.35;1.80;;;9.40;84.20;;;;;;4954931;28;20074;-76
2022/05/09 00:44:21;;;;;;;5.70;2.13;;;9.30;84.30;;;;;;4955223;28;20130;-76
2022/05/09 00:46:52;;;;;;;4.47;2.35;;;9.30;84.50;;;;;;4954095;28;20885;-76
2022/05/09 00:49:29;;;;;;;12.07;2.53;;;9.30;84.80;;;;;;4937826;28;20034;-76
2022/05/09 00:52:02;;;;;;;7.57;2.40;;;9.20;84.80;;;;;;4954374;28;20472;-76
2022/05/09 00:54:35;;;;;;;8.88;2.38;;;9.20;84.60;;;;;;4952012;28;20121;-76
2022/05/09 00:57:09;;;;;;;8.25;2.20;;;9.20;84.90;;;;;;4948209;28;20045;-76
2022/05/09 00:59:37;;;;;;;5.53;1.90;;;9.20;85.00;;;;;;4957863;28;20039;-76
2022/05/09 01:02:03;;;;;;;6.57;2.15;;;9.10;85.10;;;;;;4955719;28;20042;-76
2022/05/09 01:04:32;;;;;;;9.70;2.28;;;9.10;85.20;;;;;;4953334;28;20038;-76
2022/05/09 01:06:58;;;;;;;11.60;2.25;;;9.00;85.50;;;;;;4948336;28;20034;-76
2022/05/09 01:09:26;;;;;;;8.82;2.20;;;9.00;85.80;;;;;;4950581;28;20035;-76
2022/05/09 01:11:53;;;;;;;7.68;2.47;;;9.00;86.00;;;;;;4945549;28;20026;-76
2022/05/09 01:14:22;;;;;;;5.30;2.10;;;9.00;86.10;;;;;;4948968;28;20039;-76
2022/05/09 01:16:48;;;;;;;8.82;1.98;;;9.00;85.90;;;;;;4948142;28;20034;-76
2022/05/09 01:19:36;;;;;;;5.93;1.80;;;8.90;86.00;;;;;;4952443;28;20050;-76
2022/05/09 01:22:05;;;;;;;7.65;2.25;;;8.90;86.10;;;;;;4947975;28;20042;-76
2022/05/09 01:24:31;;;;;;;7.50;2.15;;;8.90;85.80;;;;;;4949212;28;20109;-76
2022/05/09 01:26:57;;;;;;;7.38;2.40;;;8.80;85.80;;;;;;4928719;28;20403;-76
2022/05/09 01:29:35;;;;;;;10.13;2.25;;;8.80;85.90;;;;;;4948531;28;20038;-75
2022/05/09 01:32:02;;;;;;;7.32;2.05;;;8.70;86.80;;;;;;4950313;28;20035;-76
2022/05/09 01:34:30;;;;;;;3.25;1.90;;;8.70;86.30;;;;;;4953098;28;20042;-76
2022/05/09 01:37:04;;;;;;;10.45;2.33;;;8.60;86.30;;;;;;4953093;28;20110;-76
2022/05/09 01:39:31;;;;;;;7.13;2.40;;;8.60;86.40;;;;;;4951346;28;20733;-76
2022/05/09 01:41:57;;;;;;;8.50;3.67;;;8.60;86.40;;;;;;4948520;28;20038;-76
2022/05/09 01:44:23;;;;;;;7.25;2.42;;;8.50;86.50;;;;;;4932515;28;20074;-76
2022/05/09 01:49:35;;;;;;;7.07;2.22;;;8.40;86.70;;;;;;4957648;28;20486;-76
2022/05/09 01:52:07;;;;;;;5.82;2.35;;;8.40;86.70;;;;;;4955588;28;20050;-76
2022/05/09 01:54:34;;;;;;;11.57;2.30;;;8.30;86.90;;;;;;4955335;28;20027;-76
2022/05/09 01:57:00;;;;;;;7.53;2.13;;;8.30;87.00;;;;;;4934986;28;20802;-77
2022/05/09 01:59:26;;;;;;;4.90;2.20;;;8.30;87.40;;;;;;4952746;28;20035;-76
2022/05/09 02:02:03;;;;;;;6.55;2.40;;;8.20;87.40;;;;;;4950881;28;20043;-76
2022/05/09 02:04:30;;;;;;;10.82;2.25;;;8.20;87.60;;;;;;4951793;28;20096;-76
2022/05/09 02:06:57;;;;;;;7.40;2.45;;;8.20;87.90;;;;;;4954380;28;20054;-76
2022/05/09 02:09:22;;;;;;;7.10;1.90;;;8.10;88.10;;;;;;4953390;28;20488;-76
2022/05/09 02:11:48;;;;;;;4.68;2.30;;;8.10;88.20;;;;;;4951016;28;20172;-76
2022/05/09 02:14:14;;;;;;;5.03;2.90;;;8.10;88.30;;;;;;4957236;28;20046;-76
2022/05/09 02:16:40;;;;;;;11.40;2.80;;;8.10;88.20;;;;;;4939837;28;20031;-76
2022/05/09 02:19:06;;;;;;;6.65;2.78;;;8.00;88.50;;;;;;4956522;28;20125;-76
2022/05/09 02:21:33;;;;;;;5.18;2.25;;;8.00;88.80;;;;;;4957580;28;20031;-75
2022/05/09 02:24:00;;;;;;;5.28;2.17;;;8.00;89.10;;;;;;4954912;28;20041;-76
2022/05/09 02:26:25;;;;;;;4.75;2.17;;;8.00;89.20;;;;;;4957515;28;20059;-76
2022/05/09 02:28:51;;;;;;;6.78;2.45;;;8.00;89.40;;;;;;4953291;28;20103;-76
2022/05/09 02:31:20;;;;;;;7.88;2.67;;;8.00;89.40;;;;;;4955102;28;20070;-76
2022/05/09 02:33:47;;;;;;;10.68;3.00;;;8.00;89.40;;;;;;4961748;28;20101;-76
2022/05/09 02:36:13;;;;;;;8.38;2.42;;;7.90;89.60;;;;;;4957045;28;20470;-76
2022/05/09 02:38:38;;;;;;;10.50;3.05;;;7.90;89.70;;;;;;4955547;28;20027;-76
2022/05/09 02:41:05;;;;;;;6.15;2.47;;;7.90;89.60;;;;;;4944606;28;20539;-76
2022/05/09 02:43:31;;;;;;;9.07;3.28;;;7.90;89.70;;;;;;4953056;28;20346;-76
2022/05/09 02:46:03;;;;;;;10.80;2.90;;;7.80;89.80;;;;;;4958482;28;20027;-76
2022/05/09 02:48:36;;;;;;;8.75;2.75;;;7.90;90.00;;;;;;4953385;28;20483;-76
2022/05/09 02:51:04;;;;;;;6.72;2.17;;;7.90;90.00;;;;;;4959369;28;20089;-76
2022/05/09 02:53:30;;;;;;;7.95;2.55;;;7.90;90.10;;;;;;4955257;28;20030;-76
2022/05/09 02:55:56;;;;;;;7.10;2.30;;;7.90;90.00;;;;;;4955160;28;20039;-76
2022/05/09 02:58:22;;;;;;;9.95;2.53;;;7.80;90.10;;;;;;4951075;28;20894;-76
2022/05/09 03:00:48;;;;;;;8.55;3.63;;;7.90;89.60;;;;;;4953938;28;20506;-76
2022/05/09 03:05:58;;;;;;;8.35;3.08;;;7.80;89.80;;;;;;4953150;28;20097;-76
2022/05/09 03:08:25;;;;;;;4.32;2.47;;;7.80;90.10;;;;;;4957098;28;20043;-76
2022/05/09 03:10:51;;;;;;;7.78;2.95;;;7.80;90.20;;;;;;4957644;28;20038;-76
2022/05/09 03:13:17;;;;;;;8.13;2.60;;;7.70;90.20;;;;;;4958805;28;20035;-76
2022/05/09 03:15:45;;;;;;;7.28;2.63;;;7.70;90.30;;;;;;4953291;28;20573;-76
2022/05/09 03:18:13;;;;;;;8.20;2.90;;;7.70;90.30;;;;;;4955880;28;20050;-76
2022/05/09 03:20:39;;;;;;;5.80;2.33;;;7.70;90.30;;;;;;4942663;28;20030;-76
2022/05/09 03:23:07;;;;;;;11.90;2.92;;;7.70;90.40;;;;;;4956595;28;20042;-76
2022/05/09 03:25:35;;;;;;;9.75;3.13;;;7.70;90.40;;;;;;4961267;28;20035;-76
2022/05/09 03:28:03;;;;;;;5.93;3.17;;;7.70;90.30;;;;;;4958779;28;20046;-76
2022/05/09 03:30:30;;;;;;;9.18;2.95;;;7.70;90.30;;;;;;4960195;28;20071;-76
2022/05/09 03:32:55;;;;;;;8.43;2.90;;;7.70;90.40;;;;;;4956270;28;20037;-76
2022/05/09 03:35:21;;;;;;;6.90;2.92;;;7.70;90.30;;;;;;4959459;28;20038;-76
2022/05/09 03:37:47;;;;;;;9.85;3.60;;;7.70;90.20;;;;;;4954205;28;20034;-76
2022/05/09 03:40:13;;;;;;;8.15;3.25;;;7.70;90.20;;;;;;4958470;28;20531;-76
2022/05/09 03:42:39;;;;;;;7.35;3.28;;;7.60;90.20;;;;;;4958367;28;20045;-76
2022/05/09 03:45:07;;;;;;;12.52;3.70;;;7.60;90.30;;;;;;4956019;28;20042;-76
2022/05/09 03:47:32;;;;;;;9.98;3.78;;;7.60;90.30;;;;;;4958271;28;20431;-76
2022/05/09 03:49:58;;;;;;;9.55;4.10;;;7.70;90.30;;;;;;4958583;28;20138;-76
2022/05/09 03:52:24;;;;;;;11.57;4.75;;;7.70;90.30;;;;;;4956536;28;20038;-76
2022/05/09 03:54:50;;;;;;;13.98;5.32;;;7.70;90.30;;;;;;4959411;28;20121;-76
2022/05/09 03:57:17;;;;;;;11.52;5.15;;;7.70;90.20;;;;;;4957777;28;20159;-76
2022/05/09 03:59:46;;;;;;;10.65;4.50;;;7.70;90.20;;;;;;4956337;28;20023;-76
2022/05/09 04:02:11;;;;;;;14.00;5.72;;;7.70;90.20;;;;;;4947827;28;20560;-76
2022/05/09 04:04:37;;;;;;;13.55;5.35;;;7.70;90.20;;;;;;4957642;28;20034;-76
2022/05/09 04:07:03;;;;;;;9.73;4.35;;;7.80;90.10;;;;;;4959355;28;20035;-77
2022/05/09 04:09:28;;;;;;;13.57;4.75;;;7.80;90.00;;;;;;4959086;28;21218;-77
2022/05/09 04:11:54;;;;;;;12.50;4.63;;;7.80;89.70;;;;;;4955065;28;20392;-77
2022/05/09 04:16:49;;;;;;;16.15;5.07;;;7.80;89.70;;;;;;4956496;28;20066;-76
2022/05/09 04:17:06;;;;;;;13.32;3.65;;;7.80;89.90;;;;;;4955196;28;20897;-76
2022/05/09 04:19:33;;;;;;;10.77;4.60;;;7.80;90.00;;;;;;4948772;28;20146;-76
2022/05/09 04:22:02;;;;;;;12.30;4.93;;;7.90;90.00;;;;;;4953097;28;20686;-76
2022/05/09 04:24:31;;;;;;;13.07;4.88;;;7.90;90.00;;;;;;4947407;28;20047;-76
2022/05/09 04:26:58;;;;;;;13.98;4.75;;;8.00;90.10;;;;;;4958060;28;20785;-76
2022/05/09 04:29:25;;;;;;;12.65;4.45;;;8.00;90.20;;;;;;4956294;28;20027;-76
2022/05/09 04:31:50;;;;;;;8.90;4.18;;;8.00;90.10;;;;;;4954461;28;20718;-76
2022/05/09 04:34:16;;;;;;;13.55;4.70;;;8.10;90.10;;;;;;4949849;28;20114;-76
2022/05/09 04:36:42;;;;;;;14.23;5.43;;;8.10;89.90;;;;;;4952322;28;20035;-75
2022/05/09 04:39:08;;;;;;;18.35;5.28;;;8.20;89.70;;;;;;4948079;28;20039;-76
2022/05/09 04:41:35;;;;;;;17.33;5.13;;;8.20;89.30;;;;;;4947020;28;20073;-76
2022/05/09 04:44:03;;;;;;;14.32;4.45;;;8.30;89.10;;;;;;4959242;28;20041;-76
2022/05/09 04:46:28;;;;;;;13.15;5.40;;;8.30;89.20;;;;;;4959299;28;20050;-76
2022/05/09 04:48:54;;;;;;;16.17;5.22;;;8.30;89.50;;;;;;4956921;28;20354;-76
2022/05/09 04:51:21;;;;;;;11.13;4.55;;;8.40;89.20;;;;;;4953585;28;20097;-75
2022/05/09 04:53:49;;;;;;;13.50;5.13;;;8.50;89.20;;;;;;4952136;28;20758;-76
2022/05/09 04:56:16;;;;;;;17.75;5.28;;;8.60;89.10;;;;;;4955697;28;20051;-76
2022/05/09 04:58:42;;;;;;;11.70;4.78;;;8.70;89.20;;;;;;4956564;28;20026;-76
2022/05/09 05:01:08;;;;;;;12.90;5.40;;;8.80;89.00;;;;;;4958577;28;20498;-75
2022/05/09 05:03:34;;;;;;;15.05;5.50;;;8.90;88.80;;;;;;4958349;28;20038;-76
2022/05/09 05:06:00;;;;;;;17.65;5.32;;;9.10;88.40;;;;;;4957543;28;20043;-76
2022/05/09 05:08:30;;;;;;;14.70;5.43;;;9.20;88.00;;;;;;4942517;28;20027;-76
2022/05/09 05:10:56;;;;;;;10.77;4.88;;;9.40;87.80;;;;;;4952317;28;20109;-76
2022/05/09 05:13:25;;;;;;;13.60;5.22;;;9.80;87.50;;;;;;4957904;28;20771;-76
2022/05/09 05:15:52;;;;;;;13.23;4.38;;;10.90;85.20;;;;;;4955316;28;20061;-76
2022/05/09 05:18:23;;;;;;;9.68;4.78;;;12.20;79.50;;;;;;4956996;28;20038;-76
2022/05/09 05:20:49;;;;;;;13.38;4.40;;;12.90;75.70;;;;;;4958596;28;20035;-76
2022/05/09 05:23:16;;;;;;;17.40;4.70;;;13.50;73.50;;;;;;4956714;28;20580;-76
2022/05/09 05:25:45;;;;;;;13.52;4.43;;;14.20;71.00;;;;;;4960213;28;20126;-76
2022/05/09 05:28:11;;;;;;;13.00;4.60;;;15.20;67.50;;;;;;4956821;28;20526;-76
2022/05/09 05:30:37;;;;;;;15.80;4.53;;;16.00;64.10;;;;;;4957003;28;20031;-76
2022/05/09 05:33:04;;;;;;;9.73;3.83;;;16.10;63.20;;;;;;4951712;28;20042;-76
2022/05/09 05:35:30;;;;;;;11.50;4.03;;;16.30;62.60;;;;;;4952643;28;21033;-77
2022/05/09 05:37:56;;;;;;;9.82;4.00;;;16.90;60.30;;;;;;4954057;28;20027;-76
2022/05/09 05:40:22;;;;;;;8.57;3.45;;;18.00;58.20;;;;;;4957556;28;20450;-76
2022/05/09 05:42:49;;;;;;;11.68;3.30;;;19.40;54.60;;;;;;4956583;28;20186;-76
2022/05/09 05:45:17;;;;;;;9.30;3.15;;;20.40;51.80;;;;;;4958601;28;20384;-76
2022/05/09 05:47:44;;;;;;;13.43;3.30;;;20.70;49.60;;;;;;4953674;28;20387;-76
2022/05/09 05:50:12;;;;;;;7.82;3.10;;;20.40;50.40;;;;;;4962328;28;20034;-76
2022/05/09 05:52:38;;;;;;;6.75;3.10;;;20.30;50.60;;;;;;4944583;28;20037;-77
2022/05/09 05:55:04;;;;;;;9.25;2.92;;;20.10;50.70;;;;;;4959725;28;20689;-76
2022/05/09 05:57:34;;;;;;;9.35;3.38;;;20.10;50.90;;;;;;4951947;28;20054;-76
2022/05/09 06:00:04;;;;;;;10.38;2.70;;;20.40;49.20;;;;;;4946562;28;20031;-76
2022/05/09 06:02:31;;;;;;;8.98;3.10;;;20.40;49.30;;;;;;4959249;28;20038;-76
2022/05/09 06:04:57;;;;;;;12.27;3.38;;;20.50;47.90;;;;;;4956886;28;20049;-76
2022/05/09 06:07:23;;;;;;;6.93;2.72;;;20.30;49.10;;;;;;4953789;28;20038;-76
2022/05/09 06:09:51;;;;;;;8.95;3.60;;;20.10;50.00;;;;;;4954185;28;20030;-76
2022/05/09 06:12:20;;;;;;;8.00;2.58;;;19.90;48.80;;;;;;4955261;28;20037;-76
2022/05/09 06:15:24;;;;;;;8.00;2.95;;;19.30;49.70;;;;;;4963197;28;20035;-76
2022/05/09 06:17:34;;;;;;;6.47;3.00;;;18.60;51.70;;;;;;4962128;28;20385;-75
2022/05/09 06:20:00;;;;;;;7.30;2.85;;;17.90;53.30;;;;;;4959810;28;20082;-76
2022/05/09 06:22:26;;;;;;;8.73;3.45;;;17.40;54.10;;;;;;4955600;28;20088;-76
2022/05/09 06:24:59;;;;;;;12.63;3.80;;;16.90;55.10;;;;;;4956967;28;20043;-76
2022/05/09 06:27:26;;;;;;;8.68;3.08;;;16.60;56.50;;;;;;4958422;28;20042;-76
2022/05/09 06:29:52;;;;;;;5.82;3.03;;;16.30;57.60;;;;;;4951100;28;20035;-76
2022/05/09 06:32:19;;;;;;;8.00;3.08;;;16.20;58.80;;;;;;4953996;28;20634;-76
2022/05/09 06:34:48;;;;;;;8.48;3.72;;;16.60;57.60;;;;;;4942179;28;20048;-76
2022/05/09 06:37:13;;;;;;;8.25;3.42;;;17.80;54.50;;;;;;4958304;28;20042;-76
2022/05/09 06:39:39;;;;;;;6.22;3.20;;;19.30;51.30;;;;;;4960615;28;20439;-77
2022/05/09 06:42:05;;;;;;;6.93;3.30;;;19.20;49.80;;;;;;4958945;28;20133;-77
2022/05/09 06:44:31;;;;;;;7.82;2.83;;;18.60;51.80;;;;;;4937390;28;20035;-77
2022/05/09 06:46:57;;;;;;;11.05;3.47;;;17.90;52.70;;;;;;4956905;28;20039;-77
2022/05/09 06:49:24;;;;;;;13.50;3.25;;;17.40;54.30;;;;;;4958554;28;20050;-72
2022/05/09 06:51:50;;;;;;;7.60;2.83;;;17.00;55.40;;;;;;4956403;28;20141;-77
2022/05/09 06:54:20;;;;;;;12.13;3.53;;;16.70;56.00;;;;;;4956766;28;20812;-77
2022/05/09 06:56:46;;;;;;;8.07;3.83;;;16.60;56.50;;;;;;4959980;28;20037;-76
2022/05/09 06:59:11;;;;;;;8.68;2.97;;;16.30;56.80;;;;;;4961567;28;20035;-77
2022/05/09 07:01:37;;;;;;;7.55;3.10;;;16.20;57.20;;;;;;4958159;28;20188;-76
2022/05/09 07:04:04;;;;;;;11.65;3.63;;;16.00;57.50;;;;;;4959427;28;20046;-76
2022/05/09 07:06:29;;;;;;;7.90;3.80;;;16.20;58.00;;;;;;4957217;28;20137;-76
2022/05/09 07:08:55;;;;;;;9.80;3.50;;;16.40;57.40;;;;;;4955651;28;20041;-76
2022/05/09 07:11:21;;;;;;;6.90;3.17;;;16.40;57.30;;;;;;4955574;28;20039;-76
2022/05/09 07:13:48;;;;;;;11.07;4.38;;;16.60;56.50;;;;;;4957610;28;20023;-76
2022/05/09 07:16:14;;;;;;;8.90;3.80;;;17.00;55.80;;;;;;4957637;28;20035;-76
2022/05/09 07:18:40;;;;;;;10.70;3.40;;;17.10;55.40;;;;;;4959198;28;20121;-75
2022/05/09 07:21:08;;;;;;;14.80;3.88;;;17.00;55.80;;;;;;4953492;28;20070;-74
2022/05/09 07:23:34;;;;;;;9.77;3.67;;;17.00;56.50;;;;;;4956723;28;20165;-67
2022/05/09 07:26:01;;;;;;;11.60;3.70;;;16.90;56.00;;;;;;4951211;28;20041;-72
2022/05/09 07:28:28;;;;;;;12.40;3.55;;;16.90;55.70;;;;;;4949744;28;20035;-76
2022/05/09 07:30:56;;;;;;;8.18;3.38;;;16.90;55.90;;;;;;4956745;28;20030;-73
2022/05/09 07:33:22;;;;;;;8.80;3.00;;;16.90;55.80;;;;;;4955057;28;20837;-74
2022/05/09 07:35:48;;;;;;;9.27;3.53;;;16.90;55.60;;;;;;4961372;28;20541;-73
2022/05/09 07:38:15;;;;;;;9.25;3.60;;;16.90;55.80;;;;;;4956361;28;20031;-74
2022/05/09 07:40:43;;;;;;;11.30;3.25;;;16.90;56.10;;;;;;4951931;28;20034;-73
2022/05/09 07:43:14;;;;;;;6.13;3.03;;;16.90;55.80;;;;;;4951093;28;20050;-75
2022/05/09 07:45:42;;;;;;;12.95;4.13;;;17.00;56.20;;;;;;4953362;28;20376;-75
2022/05/09 07:48:08;;;;;;;11.63;3.47;;;17.10;56.00;;;;;;4952332;28;20066;-74
2022/05/09 07:50:34;;;;;;;12.05;4.07;;;17.10;56.00;;;;;;4948721;28;20138;-75
2022/05/09 07:53:08;;;;;;;6.75;3.00;;;17.20;55.80;;;;;;4959854;28;20035;-74
2022/05/09 07:55:34;;;;;;;11.30;3.22;;;17.30;55.80;;;;;;4954239;28;20023;-74
2022/05/09 07:57:59;;;;;;;10.52;3.35;;;17.40;55.90;;;;;;4938803;28;20049;-75
2022/05/09 08:00:25;;;;;;;10.63;3.60;;;17.60;54.90;;;;;;4952018;28;20046;-75
2022/05/09 08:02:51;;;;;;;9.15;4.07;;;17.60;54.80;;;;;;4957026;28;20562;-75
2022/05/09 08:05:17;;;;;;;8.25;3.38;;;17.60;54.50;;;;;;4952755;28;20093;-75
2022/05/09 08:07:43;;;;;;;11.52;3.53;;;17.70;54.60;;;;;;4952613;28;20034;-73
2022/05/09 08:10:11;;;;;;;9.43;3.50;;;18.00;54.70;;;;;;4954452;28;20062;-72
2022/05/09 08:12:38;;;;;;;9.88;3.50;;;18.10;53.60;;;;;;4956168;28;20030;-74
2022/05/09 08:15:05;;;;;;;7.40;3.03;;;18.30;52.80;;;;;;4954994;28;20043;-73
2022/05/09 08:17:32;;;;;;;13.05;3.63;;;18.30;51.90;;;;;;4954269;28;20062;-79
2022/05/09 08:19:58;;;;;;;8.80;3.00;;;18.30;52.30;;;;;;4954934;28;20039;-72
2022/05/09 08:22:28;;;;;;;9.25;2.88;;;18.30;52.30;;;;;;4955152;28;20145;-74
2022/05/09 08:24:58;;;;;;;7.57;3.22;;;18.40;52.50;;;;;;4955642;28;20039;-75
2022/05/09 08:27:24;;;;;;;8.13;2.97;;;18.40;52.60;;;;;;4955538;28;20030;-75
2022/05/09 08:29:51;;;;;;;10.88;2.63;;;18.50;52.20;;;;;;4934058;28;20031;-75
2022/05/09 08:32:17;;;;;;;12.50;2.95;;;18.50;52.70;;;;;;4956026;28;20536;-75
2022/05/09 08:34:42;;;;;;;6.38;3.10;;;18.70;51.00;;;;;;4955633;28;20031;-72
2022/05/09 08:37:10;;;;;;;6.35;2.80;;;19.30;50.30;;;;;;4954842;28;20576;-74
2022/05/09 08:39:35;;;;;;;7.07;3.25;;;19.40;49.50;;;;;;4953664;28;20129;-74
2022/05/09 08:42:05;;;;;;;8.48;2.88;;;19.40;50.00;;;;;;4951527;28;20081;-73
2022/05/09 08:44:59;;;;;;;8.40;2.85;;;19.50;49.60;;;;;;4955644;28;20033;-73
2022/05/09 08:47:29;;;;;;;9.05;2.90;;;19.70;48.40;;;;;;4949106;28;20046;-73
2022/05/09 08:50:33;;;;;;;9.38;3.10;;;19.70;48.30;;;;;;4954603;28;20245;-73
2022/05/09 08:53:06;;;;;;;10.65;3.47;;;20.70;46.40;;;;;;4883811;29;20043;-72
2022/05/09 08:55:37;;;;;;;8.30;2.80;;;22.00;43.80;;;;;;4942078;28;20042;-74
2022/05/09 08:58:19;;;;;;;9.55;3.20;;;22.00;42.90;;;;;;4952360;28;20153;-72
2022/05/09 09:00:47;;;;;;;9.05;2.70;;;21.60;42.70;;;;;;4953660;28;20038;-75
2022/05/09 09:03:24;;;;;;;8.18;2.47;;;21.30;44.50;;;;;;4933658;28;20046;-75
2022/05/09 09:05:52;;;;;;;7.75;2.83;;;21.30;44.10;;;;;;4944026;28;20049;-73
2022/05/09 09:08:20;;;;;;;9.75;2.97;;;22.80;40.50;;;;;;4957411;28;20069;-73
2022/05/09 09:11:08;;;;;;;11.60;3.05;;;22.90;41.00;;;;;;4958505;28;20034;-76
2022/05/09 09:13:59;;;;;;;8.10;3.05;;;22.90;40.70;;;;;;4953787;28;20047;-77
2022/05/09 09:16:44;;;;;;;7.20;2.85;;;22.50;41.00;;;;;;4953229;28;20053;-75
2022/05/09 09:19:21;;;;;;;6.57;2.45;;;22.10;43.00;;;;;;4954509;28;20219;-75
2022/05/09 09:22:09;;;;;;;8.45;2.50;;;21.70;44.50;;;;;;4947314;28;20031;-74
2022/05/09 09:24:38;;;;;;;8.57;2.38;;;21.50;41.50;;;;;;4945822;28;20147;-76
2022/05/09 09:27:58;;;;;;;12.05;2.58;;;21.50;40.30;;;;;;4955814;28;20111;-77
2022/05/09 09:30:25;;;;;;;4.72;2.55;;;22.30;39.50;;;;;;4904870;28;20137;-74
2022/05/09 09:32:59;;;;;;;7.10;2.60;;;22.30;39.10;;;;;;4956444;28;20031;-74
2022/05/09 09:36:00;;;;;;;7.10;2.63;;;22.30;40.60;;;;;;4956191;28;20588;-74
2022/05/09 09:38:54;;;;;;;5.60;2.35;;;22.30;38.70;;;;;;4954189;28;20034;-77
2022/05/09 09:41:33;;;;;;;9.57;2.60;;;22.90;39.80;;;;;;4955480;28;20038;-72
2022/05/09 09:44:19;;;;;;;4.88;2.20;;;23.10;38.60;;;;;;4958278;28;20039;-72
2022/05/09 09:47:18;;;;;;;9.27;3.15;;;22.90;39.30;;;;;;4957745;28;20053;-73
2022/05/09 09:49:45;;;;;;;6.50;2.35;;;22.60;40.20;;;;;;4958191;28;20072;-73
2022/05/09 09:52:21;;;;;;;6.47;2.42;;;22.30;39.30;;;;;;4957926;28;20027;-73
2022/05/09 09:55:01;;;;;;;6.72;2.53;;;22.10;39.40;;;;;;4955655;28;20035;-73
2022/05/09 09:57:32;;;;;;;5.82;2.03;;;22.30;41.00;;;;;;4958169;28;20613;-73
2022/05/09 10:00:13;;;;;;;7.53;2.30;;;24.10;35.70;;;;;;4963101;28;20035;-73
2022/05/09 10:02:38;;;;;;;9.40;3.13;;;26.20;31.90;;;;;;4956412;28;20037;-73
2022/05/09 10:05:11;;;;;;;9.48;2.70;;;25.90;33.00;;;;;;4959512;28;20043;-73
2022/05/09 10:07:39;;;;;;;6.75;2.15;;;25.20;33.70;;;;;;4957939;28;20041;-72
2022/05/09 10:10:12;;;;;;;8.20;2.90;;;24.80;34.90;;;;;;4956360;28;20034;-74
2022/05/09 10:12:48;;;;;;;4.90;2.30;;;24.40;36.00;;;;;;4955765;28;20398;-74
2022/05/09 10:15:20;;;;;;;6.93;2.38;;;24.10;36.30;;;;;;4958109;28;20459;-73
2022/05/09 10:17:46;;;;;;;9.70;2.42;;;24.30;35.00;;;;;;4955847;28;20502;-72
2022/05/09 10:20:33;;;;;;;7.40;2.28;;;24.10;35.30;;;;;;4961089;28;20035;-66
2022/05/09 10:26:04;;;;;;;6.13;2.40;;;23.30;36.50;;;;;;4957153;28;20149;-68
2022/05/09 10:28:34;;;;;;;6.72;2.35;;;22.90;37.40;;;;;;4960660;28;20034;-69
2022/05/09 10:31:21;;;;;;;4.18;1.90;;;23.30;36.60;;;;;;4954184;28;20047;-69
2022/05/09 10:33:55;;;;;;;3.95;1.80;;;23.80;34.90;;;;;;4959691;28;20836;-69
2022/05/09 10:36:29;;;;;;;11.13;3.65;;;23.80;33.80;;;;;;4957969;28;20067;-70
2022/05/09 10:39:02;;;;;;;10.65;5.20;;;23.70;33.70;;;;;;4952384;28;20046;-69
2022/05/09 10:41:40;;;;;;;13.30;4.55;;;23.90;33.60;;;;;;4948067;28;20069;-69
2022/05/09 10:44:06;;;;;;;11.15;6.45;;;23.90;33.80;;;;;;4955631;28;20042;-69
2022/05/09 10:46:46;;;;;;;8.35;3.55;;;23.80;33.80;;;;;;4960083;28;20081;-70
2022/05/09 10:49:48;;;;;;;7.13;2.80;;;24.00;33.40;;;;;;4957261;28;20142;-69
2022/05/09 10:52:32;;;;;;;6.40;2.33;;;24.00;33.00;;;;;;4945159;28;20043;-65
2022/05/09 10:55:13;;;;;;;8.90;2.55;;;24.10;32.60;;;;;;4947678;28;20104;-66
2022/05/09 10:57:54;;;;;;;6.97;2.30;;;23.90;32.60;;;;;;4945803;28;20858;-69
2022/05/09 11:00:24;;;;;;;9.35;2.35;;;25.20;30.60;;;;;;4957489;28;20038;-69
2022/05/09 11:03:16;;;;;;;8.10;2.75;;;26.30;29.30;;;;;;4958195;28;20291;-69
2022/05/09 11:05:50;;;;;;;6.22;2.58;;;25.10;30.10;;;;;;4953612;28;20027;-68
2022/05/09 11:08:58;;;;;;;7.32;2.45;;;24.10;31.80;;;;;;4957564;28;20031;-69
2022/05/09 11:11:38;;;;;;;7.35;2.25;;;23.10;33.10;;;;;;4946886;28;20039;-69
2022/05/09 11:14:35;;;;;;;8.50;2.40;;;22.50;34.10;;;;;;4953617;28;20672;-68
2022/05/09 11:17:26;;;;;;;8.40;2.58;;;22.40;35.00;;;;;;4960318;28;20036;-68
2022/05/09 11:20:15;;;;;;;8.57;2.83;;;22.40;34.30;;;;;;4928661;28;20066;-68
2022/05/09 11:22:44;;;;;;;6.10;2.97;;;22.10;35.20;;;;;;4956734;28;20074;-68
2022/05/09 11:25:32;;;;;;;8.30;2.42;;;22.10;35.60;;;;;;4935881;28;20380;-68
2022/05/09 11:28:19;;;;;;;8.02;2.13;;;22.30;34.20;;;;;;4955728;28;20059;-68
2022/05/09 11:30:56;;;;;;;5.57;2.00;;;22.40;35.00;;;;;;4951836;28;20034;-67
2022/05/09 11:33:34;;;;;;;7.45;2.17;;;22.20;35.40;;;;;;4948137;28;20131;-68
2022/05/09 11:36:37;;;;;;;9.80;2.30;;;22.10;35.50;;;;;;4954777;28;20093;-68
2022/05/09 11:39:19;;;;;;;5.25;2.22;;;22.20;35.60;;;;;;4929263;28;20047;-67
2022/05/09 11:45:41;;;;;;;7.13;1.98;;;22.20;34.30;;;;;;4945200;28;20043;-68
2022/05/09 11:48:26;;;;;;;6.03;1.98;;;22.50;34.70;;;;;;4951680;28;20130;-68
2022/05/09 11:51:01;;;;;;;4.78;2.35;;;22.60;33.70;;;;;;4953482;28;20034;-66
2022/05/09 11:53:32;;;;;;;5.57;2.00;;;22.70;33.70;;;;;;4955863;28;20055;-65
2022/05/09 11:56:05;;;;;;;5.15;2.08;;;22.90;32.80;;;;;;4954804;28;20035;-65
2022/05/09 11:58:34;;;;;;;4.13;1.95;;;22.70;32.80;;;;;;4949643;28;20117;-66
2022/05/09 12:01:00;;;;;;;3.38;1.75;;;22.70;32.60;;;;;;4952194;28;20054;-65
2022/05/09 12:03:53;;;;;;;3.13;2.15;;;22.70;34.10;;;;;;4958349;28;20508;-66
2022/05/09 12:06:35;;;;;;;7.50;1.70;;;22.70;33.50;;;;;;4954342;28;20046;-65
2022/05/09 12:09:04;;;;;;;5.63;2.30;;;22.60;32.60;;;;;;4951646;28;20046;-67
2022/05/09 12:11:46;;;;;;;5.78;1.90;;;22.40;32.10;;;;;;4954219;28;20070;-67
2022/05/09 12:14:39;;;;;;;4.55;1.80;;;22.40;32.70;;;;;;4955508;28;20049;-65
2022/05/09 12:17:32;;;;;;;7.07;2.03;;;22.20;32.00;;;;;;4957124;28;20547;-66
2022/05/09 12:19:58;;;;;;;5.35;1.85;;;22.20;32.70;;;;;;4956730;28;20039;-65
2022/05/09 12:22:39;;;;;;;6.28;1.90;;;22.20;33.40;;;;;;4953239;28;20070;-65
2022/05/09 12:25:12;;;;;;;5.07;1.75;;;22.20;34.10;;;;;;4952549;28;20097;-65
2022/05/09 12:27:53;;;;;;;5.13;2.15;;;22.50;33.20;;;;;;4953349;28;20031;-65
2022/05/09 12:30:42;;;;;;;6.40;2.28;;;22.60;32.80;;;;;;4956278;28;20569;-66
2022/05/09 12:33:43;;;;;;;6.05;2.22;;;22.70;32.90;;;;;;4953826;28;20046;-67
2022/05/09 12:36:11;;;;;;;7.40;2.20;;;22.90;32.00;;;;;;4906304;28;20039;-66
2022/05/09 12:38:42;;;;;;;7.53;2.90;;;22.90;31.50;;;;;;4955275;28;20022;-65
2022/05/09 12:41:19;;;;;;;11.55;5.35;;;22.90;33.60;;;;;;4956247;28;20560;-66
2022/05/09 12:44:09;;;;;;;27.17;13.75;;;23.10;33.50;;;;;;4954347;28;20125;-66
2022/05/09 12:46:40;;;;;;;9.02;3.40;;;23.20;32.70;;;;;;4952190;28;20034;-66
2022/05/09 12:49:08;;;;;;;8.23;3.15;;;23.00;32.00;;;;;;4954316;28;20113;-66
2022/05/09 12:51:46;;;;;;;6.60;3.00;;;22.90;32.30;;;;;;4951210;28;20027;-66
2022/05/09 12:54:14;;;;;;;6.10;2.10;;;22.80;33.00;;;;;;4954416;28;20106;-67
2022/05/09 12:56:53;;;;;;;16.52;7.57;;;22.70;33.20;;;;;;4955319;28;20093;-66
2022/05/09 12:59:20;;;;;;;7.50;3.95;;;22.50;34.20;;;;;;4953665;28;20034;-66
2022/05/09 13:01:55;;;;;;;8.07;3.88;;;22.70;33.90;;;;;;4953991;28;20929;-66
2022/05/09 13:04:26;;;;;;;10.63;3.45;;;22.90;33.10;;;;;;4952151;28;20035;-66
2022/05/09 13:07:04;;;;;;;7.80;2.88;;;22.80;32.90;;;;;;4948235;28;20557;-67
2022/05/09 13:09:35;;;;;;;7.45;2.50;;;22.70;33.60;;;;;;4953151;28;20637;-66
2022/05/09 13:12:13;;;;;;;8.25;2.47;;;22.60;32.60;;;;;;4953551;28;20746;-66
2022/05/09 13:14:47;;;;;;;7.95;3.42;;;22.60;32.30;;;;;;4955419;28;20026;-66
2022/05/09 13:17:29;;;;;;;7.00;2.08;;;22.60;33.30;;;;;;4952115;28;20579;-66
2022/05/09 13:19:56;;;;;;;8.60;3.00;;;22.60;33.70;;;;;;4947591;28;20278;-66